createdAt,value
2018-06-13T00:01:50.482Z,4.40
2018-06-13T00:04:19.662Z,4.50
2018-06-13T00:09:48.956Z,4.40
2018-06-13T00:12:18.125Z,5.33
2018-06-13T00:14:47.269Z,5.10
2018-06-13T00:17:16.441Z,4.80
2018-06-13T00:22:46.653Z,4.87
2018-06-13T00:25:15.818Z,5.40
2018-06-13T00:27:44.992Z,4.50
2018-06-13T00:30:14.341Z,4.40
2018-06-13T00:32:43.509Z,5.10
2018-06-13T00:35:12.673Z,4.47
2018-06-13T00:37:41.853Z,6.23
2018-06-13T00:43:05.349Z,4.37
2018-06-13T00:45:34.501Z,4.53
2018-06-13T00:48:03.674Z,4.33
2018-06-13T00:50:32.849Z,4.97
2018-06-13T00:53:02.009Z,5.10
2018-06-13T00:58:31.831Z,6.10
2018-06-13T01:01:00.757Z,5.10
2018-06-13T01:06:30.845Z,7.17
2018-06-13T01:09:00.074Z,5.97
2018-06-13T01:11:29.254Z,5.20
2018-06-13T01:13:58.455Z,4.83
2018-06-13T01:19:28.381Z,5.70
2018-06-13T01:21:57.535Z,4.53
2018-06-13T01:24:26.826Z,6.17
2018-06-13T01:26:56.028Z,7.83
2018-06-13T01:29:25.213Z,4.60
2018-06-13T01:31:54.491Z,5.50
2018-06-13T01:34:23.684Z,6.00
2018-06-13T01:36:56.815Z,5.40
2018-06-13T01:39:26.055Z,4.83
2018-06-13T01:41:55.201Z,5.10
2018-06-13T01:47:25.446Z,4.23
2018-06-13T01:52:39.540Z,6.30
2018-06-13T01:55:08.717Z,4.20
2018-06-13T01:59:14.513Z,5.27
2018-06-13T02:01:43.668Z,5.97
2018-06-13T02:07:12.862Z,6.50
2018-06-13T02:09:42.032Z,6.23
2018-06-13T02:15:11.773Z,4.93
2018-06-13T02:17:40.945Z,6.80
2018-06-13T02:20:10.109Z,5.50
2018-06-13T02:22:39.653Z,5.20
2018-06-13T02:25:08.841Z,7.00
2018-06-13T02:27:38.042Z,7.83
2018-06-13T02:30:07.425Z,6.00
2018-06-13T02:32:55.034Z,5.13
2018-06-13T02:35:24.290Z,5.80
2018-06-13T02:37:53.718Z,6.97
2018-06-13T02:43:23.417Z,4.97
2018-06-13T02:45:52.634Z,6.90
2018-06-13T02:48:21.891Z,4.90
2018-06-13T02:50:51.103Z,6.37
2018-06-13T02:53:20.273Z,5.83
2018-06-13T02:55:49.447Z,6.10
2018-06-13T02:58:18.643Z,6.50
2018-06-13T03:00:47.797Z,5.37
2018-06-13T03:03:16.947Z,5.30
2018-06-13T03:05:46.113Z,5.87
2018-06-13T03:11:16.025Z,6.90
2018-06-13T03:13:59.412Z,5.57
2018-06-13T03:16:28.585Z,4.60
2018-06-13T03:18:57.761Z,5.00
2018-06-13T03:21:26.912Z,6.30
2018-06-13T03:23:56.225Z,6.60
2018-06-13T03:26:25.426Z,4.83
2018-06-13T03:28:54.582Z,5.50
2018-06-13T03:31:23.765Z,6.47
2018-06-13T03:33:52.919Z,4.80
2018-06-13T03:39:22.030Z,5.13
2018-06-13T03:41:50.968Z,4.80
2018-06-13T03:44:20.135Z,5.30
2018-06-13T03:46:49.090Z,6.70
2018-06-13T03:49:18.287Z,6.23
2018-06-13T03:51:47.430Z,6.00
2018-06-13T03:54:16.630Z,5.90
2018-06-13T03:56:45.782Z,6.30
2018-06-13T03:59:14.944Z,5.83
2018-06-13T04:01:44.219Z,6.60
2018-06-13T04:04:13.416Z,5.60
2018-06-13T04:06:42.584Z,5.93
2018-06-13T04:09:11.773Z,7.47
2018-06-13T04:11:40.941Z,6.33
2018-06-13T04:14:10.092Z,5.30
2018-06-13T04:16:39.442Z,7.33
2018-06-13T04:19:08.621Z,5.37
2018-06-13T04:21:37.852Z,7.67
2018-06-13T04:27:07.425Z,5.80
2018-06-13T04:29:36.574Z,6.70
2018-06-13T04:32:05.748Z,7.43
2018-06-13T04:34:34.926Z,4.93
2018-06-13T04:37:04.081Z,5.70
2018-06-13T04:42:33.994Z,5.67
2018-06-13T04:45:03.195Z,5.57
2018-06-13T04:47:32.349Z,5.03
2018-06-13T04:50:01.536Z,7.10
2018-06-13T04:52:30.682Z,6.00
2018-06-13T04:54:59.857Z,8.70
2018-06-13T04:57:29.152Z,5.43
2018-06-13T05:04:03.707Z,5.90
2018-06-13T05:06:54.073Z,7.03
2018-06-13T05:09:23.268Z,7.73
2018-06-13T05:11:52.432Z,6.40
2018-06-13T05:14:21.742Z,6.10
2018-06-13T05:16:51.041Z,5.00
2018-06-13T05:19:20.202Z,7.60
2018-06-13T05:21:49.404Z,5.63
2018-06-13T05:24:18.638Z,5.60
2018-06-13T05:26:47.825Z,7.97
2018-06-13T05:29:17.066Z,7.53
2018-06-13T05:31:46.277Z,5.53
2018-06-13T05:34:15.469Z,7.00
2018-06-13T05:36:44.701Z,6.43
2018-06-13T05:39:13.903Z,6.30
2018-06-13T05:41:55.367Z,6.03
2018-06-13T05:44:24.531Z,5.17
2018-06-13T05:46:53.697Z,5.90
2018-06-13T05:52:22.792Z,5.90
2018-06-13T05:54:51.965Z,6.27
2018-06-13T05:57:21.113Z,5.20
2018-06-13T05:59:50.316Z,6.00
2018-06-13T06:02:19.484Z,6.20
2018-06-13T06:04:55.977Z,6.03
2018-06-13T06:07:25.121Z,8.13
2018-06-13T06:09:54.329Z,5.83
2018-06-13T06:12:23.509Z,5.73
2018-06-13T06:14:52.683Z,6.43
2018-06-13T06:20:21.519Z,7.10
2018-06-13T06:28:25.706Z,6.07
2018-06-13T06:33:56.645Z,6.00
2018-06-13T06:36:54.342Z,6.33
2018-06-13T06:48:23.133Z,5.60
2018-06-13T06:50:58.236Z,5.70
2018-06-13T06:56:27.448Z,8.07
2018-06-13T06:58:57.189Z,6.53
2018-06-13T07:01:26.386Z,7.37
2018-06-13T07:03:55.583Z,9.53
2018-06-13T07:06:24.895Z,7.53
2018-06-13T07:08:54.041Z,7.47
2018-06-13T07:11:23.241Z,7.07
2018-06-13T07:13:52.421Z,6.37
2018-06-13T07:16:21.574Z,7.13
2018-06-13T07:18:56.752Z,9.33
2018-06-13T07:21:25.909Z,6.73
2018-06-13T07:23:55.091Z,5.60
2018-06-13T07:26:24.245Z,6.10
2018-06-13T07:28:56.930Z,6.73
2018-06-13T07:31:26.109Z,6.70
2018-06-13T07:36:55.737Z,5.30
2018-06-13T07:39:24.888Z,8.33
2018-06-13T07:41:54.033Z,6.70
2018-06-13T07:44:23.296Z,8.30
2018-06-13T07:46:52.454Z,8.23
2018-06-13T07:49:21.618Z,6.53
2018-06-13T07:51:50.829Z,6.80
2018-06-13T07:54:19.982Z,8.00
2018-06-13T07:56:56.222Z,5.83
2018-06-13T07:59:25.361Z,6.47
2018-06-13T08:01:57.530Z,6.90
2018-06-13T08:04:26.682Z,7.83
2018-06-13T08:06:55.877Z,7.30
2018-06-13T08:09:25.077Z,9.70
2018-06-13T08:11:54.264Z,7.10
2018-06-13T08:14:23.453Z,8.70
2018-06-13T08:16:52.686Z,5.93
2018-06-13T08:19:21.863Z,5.97
2018-06-13T08:21:51.027Z,7.33
2018-06-13T08:24:20.200Z,6.87
2018-06-13T08:26:54.474Z,5.50
2018-06-13T08:32:23.654Z,7.43
2018-06-13T08:34:52.815Z,8.87
2018-06-13T08:37:22.024Z,8.10
2018-06-13T08:39:57.142Z,6.27
2018-06-13T08:42:26.307Z,6.30
2018-06-13T08:44:55.477Z,8.33
2018-06-13T08:47:24.665Z,8.40
2018-06-13T08:49:53.840Z,9.30
2018-06-13T08:52:22.976Z,6.10
2018-06-13T08:54:52.173Z,6.60
2018-06-13T08:57:21.325Z,6.07
2018-06-13T08:59:50.518Z,6.07
2018-06-13T09:02:19.877Z,6.63
2018-06-13T09:04:49.040Z,7.17
2018-06-13T09:10:18.700Z,5.77
2018-06-13T09:12:56.072Z,7.10
2018-06-13T09:15:25.309Z,7.90
2018-06-13T09:17:54.474Z,8.73
2018-06-13T09:20:23.642Z,10.13
2018-06-13T09:22:52.841Z,8.07
2018-06-13T09:25:21.980Z,8.70
2018-06-13T09:27:51.197Z,7.33
2018-06-13T09:30:20.395Z,6.47
2018-06-13T09:32:49.575Z,6.63
2018-06-13T09:35:18.745Z,6.20
2018-06-13T09:37:47.973Z,7.27
2018-06-13T09:43:17.137Z,6.20
2018-06-13T09:45:46.287Z,6.30
2018-06-13T09:51:22.341Z,6.40
2018-06-13T09:53:51.516Z,7.40
2018-06-13T09:56:20.734Z,6.40
2018-06-13T09:58:55.341Z,6.90
2018-06-13T10:01:29.958Z,5.47
2018-06-13T10:03:59.153Z,5.37
2018-06-13T10:06:28.315Z,5.53
2018-06-13T10:08:57.469Z,5.90
2018-06-13T10:11:26.698Z,5.30
2018-06-13T10:13:55.854Z,5.37
2018-06-13T10:18:59.202Z,5.80
2018-06-13T10:21:28.438Z,4.47
2018-06-13T10:23:57.614Z,9.20
2018-06-13T10:26:26.845Z,6.43
2018-06-13T10:28:56.056Z,7.17
2018-06-13T10:31:25.242Z,6.60
2018-06-13T10:33:54.562Z,6.00
2018-06-13T10:39:23.882Z,4.87
2018-06-13T10:41:53.049Z,4.70
2018-06-13T10:47:22.465Z,5.93
2018-06-13T10:49:51.601Z,4.33
2018-06-13T10:52:20.774Z,5.03
2018-06-13T10:54:50.017Z,4.67
2018-06-13T10:57:19.218Z,4.83
2018-06-13T10:59:48.383Z,4.27
2018-06-13T11:02:17.580Z,5.37
2018-06-13T11:04:46.948Z,4.67
2018-06-13T11:07:16.020Z,4.57
2018-06-13T11:09:45.254Z,4.90
2018-06-13T11:12:14.418Z,4.00
2018-06-13T11:14:43.582Z,4.23
2018-06-13T11:17:12.798Z,3.93
2018-06-13T11:19:55.392Z,4.10
2018-06-13T11:22:24.851Z,5.47
2018-06-13T11:24:54.040Z,4.53
2018-06-13T11:27:23.217Z,4.57
2018-06-13T11:29:52.424Z,4.00
2018-06-13T11:32:21.591Z,4.00
2018-06-13T11:34:54.989Z,4.00
2018-06-13T11:37:24.153Z,3.57
2018-06-13T11:39:53.536Z,3.77
2018-06-13T11:42:22.739Z,4.50
2018-06-13T11:44:51.914Z,3.60
2018-06-13T11:47:21.139Z,4.13
2018-06-13T11:49:50.513Z,3.40
2018-06-13T11:52:19.880Z,3.87
2018-06-13T11:54:49.293Z,3.57
2018-06-13T11:57:18.929Z,3.73
2018-06-13T11:59:48.302Z,3.60
2018-06-13T12:02:17.527Z,3.70
2018-06-13T12:04:46.678Z,4.00
2018-06-13T12:07:15.833Z,4.27
2018-06-13T12:09:45.014Z,3.70
2018-06-13T12:12:14.160Z,4.33
2018-06-13T12:14:43.343Z,4.30
2018-06-13T12:20:12.785Z,3.50
2018-06-13T12:22:41.952Z,5.30
2018-06-13T12:25:11.098Z,6.00
2018-06-13T12:27:40.291Z,4.30
2018-06-13T12:33:10.053Z,4.80
2018-06-13T12:35:39.254Z,6.20
2018-06-13T12:38:08.401Z,4.80
2018-06-13T12:40:37.795Z,5.30
2018-06-13T12:43:06.959Z,4.40
2018-06-13T12:45:36.135Z,5.33
2018-06-13T12:48:05.369Z,6.00
2018-06-13T12:50:34.516Z,5.03
2018-06-13T12:53:03.702Z,4.67
2018-06-13T12:55:32.902Z,5.87
2018-06-13T13:01:02.277Z,4.97
2018-06-13T13:03:31.514Z,5.53
2018-06-13T13:06:00.681Z,5.80
2018-06-13T13:08:29.990Z,5.77
2018-06-13T13:10:59.216Z,5.60
2018-06-13T13:13:28.367Z,5.30
2018-06-13T13:15:57.586Z,5.93
2018-06-13T13:18:26.751Z,5.10
2018-06-13T13:20:55.915Z,4.73
2018-06-13T13:23:25.740Z,6.37
2018-06-13T13:25:54.897Z,6.50
2018-06-13T13:28:24.053Z,7.80
2018-06-13T13:30:54.382Z,6.30
2018-06-13T13:35:32.557Z,6.60
2018-06-13T13:38:01.810Z,6.97
2018-06-13T13:47:12.076Z,6.50
2018-06-13T13:49:55.336Z,6.47
2018-06-13T13:52:24.526Z,8.23
2018-06-13T13:54:57.647Z,7.60
2018-06-13T13:57:26.867Z,8.80
2018-06-13T13:59:56.258Z,7.00
2018-06-13T14:02:25.426Z,8.47
2018-06-13T14:04:54.639Z,8.47
2018-06-13T14:07:23.821Z,8.03
2018-06-13T14:09:53.004Z,8.60
2018-06-13T14:15:22.242Z,8.80
2018-06-13T14:17:51.429Z,8.23
2018-06-13T14:20:20.611Z,7.57
2018-06-13T14:25:49.975Z,6.93
2018-06-13T14:28:19.141Z,8.40
2018-06-13T14:30:48.333Z,7.67
2018-06-13T14:33:17.549Z,10.37
2018-06-13T14:38:31.987Z,8.57
2018-06-13T14:41:01.203Z,8.17
2018-06-13T14:43:30.440Z,6.50
2018-06-13T14:45:59.714Z,8.20
2018-06-13T14:51:30.631Z,7.87
2018-06-13T14:54:00.544Z,8.10
2018-06-13T14:56:31.210Z,9.03
2018-06-13T14:59:01.674Z,6.80
2018-06-13T15:01:31.117Z,4.90
2018-06-13T15:07:01.067Z,8.80
2018-06-13T15:09:55.042Z,7.57
2018-06-13T15:15:24.599Z,5.40
2018-06-13T15:23:57.093Z,5.10
2018-06-13T15:26:53.554Z,6.77
2018-06-13T15:35:53.704Z,5.50
2018-06-13T15:42:59.273Z,6.07
2018-06-13T15:45:28.616Z,4.50
2018-06-13T15:47:57.810Z,5.40
2018-06-13T15:53:54.317Z,5.90
2018-06-13T15:56:23.638Z,5.00
2018-06-13T16:01:55.001Z,5.10
2018-06-13T16:04:24.161Z,5.97
2018-06-13T16:06:53.314Z,5.30
2018-06-13T16:12:06.793Z,5.30
2018-06-13T16:14:35.953Z,6.50
2018-06-13T16:22:19.351Z,8.87
2018-06-13T16:24:59.750Z,5.03
2018-06-13T16:27:54.240Z,6.50
2018-06-13T17:01:49.986Z,5.47
2018-06-13T17:19:20.660Z,5.40
2018-06-13T17:21:56.636Z,5.03
2018-06-13T17:30:25.958Z,8.57
2018-06-13T17:38:57.683Z,10.40
2018-06-13T17:41:26.923Z,6.53
2018-06-13T17:43:56.112Z,6.10
2018-06-13T17:46:25.290Z,6.53
2018-06-13T17:48:57.754Z,6.00
2018-06-13T17:51:26.955Z,8.00
2018-06-13T17:53:56.199Z,5.93
2018-06-13T17:56:54.791Z,10.67
2018-06-13T17:59:24.141Z,11.53
2018-06-13T18:01:53.374Z,11.30
2018-06-13T18:04:22.582Z,11.30
2018-06-13T18:09:52.474Z,12.03
2018-06-13T18:15:21.599Z,11.90
2018-06-13T18:17:50.762Z,5.67
2018-06-13T18:23:20.158Z,10.37
2018-06-13T18:25:56.684Z,10.33
2018-06-13T18:34:00.834Z,10.50
2018-06-13T18:36:55.217Z,8.43
2018-06-13T18:39:24.621Z,6.57
2018-06-13T18:49:01.795Z,9.33
2018-06-13T18:51:55.901Z,10.13
2018-06-13T18:57:25.966Z,10.60
2018-06-13T19:08:58.341Z,10.30
2018-06-13T19:11:27.585Z,9.93
2018-06-13T19:13:57.538Z,10.70
2018-06-13T19:19:26.751Z,9.77
2018-06-13T19:21:55.938Z,9.97
2018-06-13T19:27:25.370Z,10.93
2018-06-13T19:32:54.592Z,10.50
2018-06-13T19:35:24.501Z,11.23
2018-06-13T19:37:53.751Z,10.57
2018-06-13T19:40:23.030Z,10.23
2018-06-13T19:42:52.247Z,11.33
2018-06-13T19:45:21.434Z,10.80
2018-06-13T19:47:55.753Z,10.83
2018-06-13T19:50:24.951Z,11.10
2018-06-13T19:52:59.486Z,10.80
2018-06-13T19:55:34.096Z,9.60
2018-06-13T20:01:04.243Z,11.03
2018-06-13T20:03:38.911Z,9.90
2018-06-13T20:06:08.575Z,10.10
2018-06-13T20:08:38.747Z,10.07
2018-06-13T20:11:07.984Z,10.37
2018-06-13T20:13:42.993Z,10.97
2018-06-13T20:16:17.286Z,11.50
2018-06-13T20:18:52.014Z,9.57
2018-06-13T20:21:21.239Z,11.10
2018-06-13T20:23:50.445Z,11.00
2018-06-13T20:35:20.257Z,11.10
2018-06-13T20:37:57.566Z,10.43
2018-06-13T20:40:26.954Z,10.23
2018-06-13T20:42:56.153Z,9.67
2018-06-13T20:45:54.170Z,10.90
2018-06-13T20:48:23.496Z,10.93
2018-06-13T20:50:52.664Z,10.27
2018-06-13T20:56:23.035Z,10.30
2018-06-13T21:01:53.036Z,9.70
2018-06-13T21:04:22.226Z,10.40
2018-06-13T21:06:57.438Z,10.40
2018-06-13T21:09:26.642Z,10.30
2018-06-13T21:11:55.872Z,10.37
2018-06-13T21:14:25.069Z,10.10
2018-06-13T21:16:54.251Z,10.17
2018-06-13T21:19:23.446Z,9.60
2018-06-13T21:21:58.502Z,9.50
2018-06-13T21:24:27.693Z,9.10
2018-06-13T21:26:56.870Z,10.30
2018-06-13T21:29:55.264Z,10.03
2018-06-13T21:32:24.446Z,8.80
2018-06-13T21:34:57.576Z,9.03
2018-06-13T21:37:26.767Z,9.10
2018-06-13T21:39:56.203Z,8.87
2018-06-13T21:42:55.185Z,10.10
2018-06-13T21:45:24.381Z,9.60
2018-06-13T21:47:53.677Z,9.13
2018-06-13T21:50:22.929Z,8.60
2018-06-13T21:52:52.338Z,9.50
2018-06-13T21:55:21.557Z,8.97
2018-06-13T21:57:57.769Z,8.97
2018-06-13T22:00:27.060Z,8.40
2018-06-13T22:05:56.873Z,8.20
2018-06-13T22:11:26.202Z,8.07
2018-06-13T22:13:55.477Z,8.23
2018-06-13T22:16:24.693Z,7.63
2018-06-13T22:18:53.912Z,7.77
2018-06-13T22:21:23.078Z,7.23
2018-06-13T22:23:52.294Z,7.57
2018-06-13T22:26:21.459Z,7.80
2018-06-13T22:28:50.611Z,8.43
2018-06-13T22:34:20.555Z,7.13
2018-06-13T22:36:56.800Z,7.10
2018-06-13T22:39:26.084Z,6.30
2018-06-13T22:41:55.444Z,6.67
2018-06-13T22:44:24.636Z,7.00
2018-06-13T22:46:53.837Z,5.90
2018-06-13T22:49:22.990Z,6.03
2018-06-13T22:51:52.175Z,7.80
2018-06-13T22:54:21.378Z,5.77
2018-06-13T22:56:50.542Z,5.30
2018-06-13T23:02:19.752Z,4.87
2018-06-13T23:04:48.914Z,4.90
2018-06-13T23:07:18.061Z,5.33
2018-06-13T23:09:47.253Z,5.43
2018-06-13T23:15:16.417Z,4.40
2018-06-13T23:17:45.587Z,5.00
2018-06-13T23:20:14.974Z,4.80
2018-06-13T23:22:44.502Z,5.13
2018-06-13T23:25:13.677Z,4.50
2018-06-13T23:27:56.235Z,4.57
2018-06-13T23:30:25.390Z,4.70
2018-06-13T23:32:58.632Z,4.17
2018-06-13T23:35:27.780Z,4.40
2018-06-13T23:37:56.921Z,4.33
2018-06-13T23:40:26.234Z,4.20
2018-06-13T23:42:57.471Z,4.07
2018-06-13T23:45:26.707Z,3.93
2018-06-13T23:47:55.874Z,6.23
2018-06-13T23:50:25.037Z,4.60
2018-06-13T23:52:56.411Z,4.33
2018-06-13T23:55:25.553Z,3.90
